KPKB/PKB METAR and TAF weather

Enter ICAO airport designator
Station Type Date Time Source
KPKB METAR 2021/09/16 21:53 UTC NOAA

KPKB 162153Z 06005KT 10SM CLR 27/18 A3009 RMK AO2 SLP184 T02720183


Station Type Date Time Source
KPKB Decoded METAR 2021/09/16 21:53 UTC NOAA

MID-OHIO VALLEY RGNL AIRPORT, WV, United States (KPKB) 39-20N 81-27W
Sep 16, 2021 - 05:53 PM EDT / 2021.09.16 2153 UTC
Wind: from the ENE (060 degrees) at 6 MPH (5 KT):0
Visibility: 10 mile(s):0
Sky conditions: clear
Temperature: 81.0 F (27.2 C)
Dew Point: 64.9 F (18.3 C)
Relative Humidity: 58%
Pressure (altimeter): 30.09 in. Hg (1018 hPa)
ob: KPKB 162153Z 06005KT 10SM CLR 27/18 A3009 RMK AO2 SLP184 T02720183
cycle: 22

Station Type Date Time Source
KPKB TAF 2021/09/16 18:42 UTC NOAA

TAF KPKB 161739Z 1618/1718 00000KT P6SM BKN012
FM161830 00000KT P6SM SCT035
FM170900 00000KT 6SM BR FEW035
FM171200 00000KT P6SM FEW120
FM171600 VRB03KT P6SM FEW026

Example: see airport list